sensor_id;sensor_type;location;lat;lon;timestamp;P1;durP1;ratioP1;P2;durP2;ratioP2
3845;SDS011;1938;50.812;7.738;2022-08-19T00:00:00;34.90;;;24.80;;
3845;SDS011;1938;50.812;7.738;2022-08-19T00:02:27;39.03;;;24.63;;
3845;SDS011;1938;50.812;7.738;2022-08-19T00:04:53;39.33;;;24.33;;
3845;SDS011;1938;50.812;7.738;2022-08-19T00:07:19;37.80;;;25.03;;
3845;SDS011;1938;50.812;7.738;2022-08-19T00:09:46;34.53;;;24.53;;
3845;SDS011;1938;50.812;7.738;2022-08-19T00:12:12;37.33;;;25.70;;
3845;SDS011;1938;50.812;7.738;2022-08-19T00:14:38;39.50;;;28.00;;
3845;SDS011;1938;50.812;7.738;2022-08-19T00:17:06;41.10;;;25.57;;
3845;SDS011;1938;50.812;7.738;2022-08-19T00:19:33;45.57;;;24.93;;
3845;SDS011;1938;50.812;7.738;2022-08-19T00:22:00;38.07;;;24.77;;
3845;SDS011;1938;50.812;7.738;2022-08-19T00:24:27;40.17;;;25.90;;
3845;SDS011;1938;50.812;7.738;2022-08-19T00:26:53;36.37;;;25.37;;
3845;SDS011;1938;50.812;7.738;2022-08-19T00:29:20;38.60;;;25.30;;
3845;SDS011;1938;50.812;7.738;2022-08-19T00:31:47;33.57;;;24.10;;
3845;SDS011;1938;50.812;7.738;2022-08-19T00:34:13;36.43;;;24.43;;
3845;SDS011;1938;50.812;7.738;2022-08-19T00:36:39;31.87;;;22.30;;
3845;SDS011;1938;50.812;7.738;2022-08-19T00:39:07;35.70;;;23.60;;
3845;SDS011;1938;50.812;7.738;2022-08-19T00:41:33;32.30;;;23.40;;
3845;SDS011;1938;50.812;7.738;2022-08-19T00:44:00;41.30;;;22.93;;
3845;SDS011;1938;50.812;7.738;2022-08-19T00:46:31;33.57;;;24.30;;
3845;SDS011;1938;50.812;7.738;2022-08-19T00:48:58;36.63;;;24.30;;
3845;SDS011;1938;50.812;7.738;2022-08-19T00:51:27;32.23;;;23.70;;
3845;SDS011;1938;50.812;7.738;2022-08-19T00:53:55;35.77;;;23.50;;
3845;SDS011;1938;50.812;7.738;2022-08-19T00:56:23;42.47;;;26.93;;
3845;SDS011;1938;50.812;7.738;2022-08-19T00:58:48;37.67;;;24.90;;
3845;SDS011;1938;50.812;7.738;2022-08-19T01:01:14;35.47;;;24.90;;
3845;SDS011;1938;50.812;7.738;2022-08-19T01:03:41;36.60;;;24.03;;
3845;SDS011;1938;50.812;7.738;2022-08-19T01:06:07;32.60;;;21.63;;
3845;SDS011;1938;50.812;7.738;2022-08-19T01:08:33;34.03;;;25.10;;
3845;SDS011;1938;50.812;7.738;2022-08-19T01:10:58;37.00;;;25.00;;
3845;SDS011;1938;50.812;7.738;2022-08-19T01:13:26;34.50;;;23.77;;
3845;SDS011;1938;50.812;7.738;2022-08-19T01:15:56;37.03;;;25.70;;
3845;SDS011;1938;50.812;7.738;2022-08-19T01:18:31;36.90;;;24.67;;
3845;SDS011;1938;50.812;7.738;2022-08-19T01:21:01;37.03;;;25.40;;
3845;SDS011;1938;50.812;7.738;2022-08-19T01:23:31;36.53;;;24.83;;
3845;SDS011;1938;50.812;7.738;2022-08-19T01:26:10;36.10;;;25.03;;
3845;SDS011;1938;50.812;7.738;2022-08-19T01:28:42;41.90;;;26.60;;
3845;SDS011;1938;50.812;7.738;2022-08-19T01:31:12;36.07;;;26.00;;
3845;SDS011;1938;50.812;7.738;2022-08-19T01:33:40;39.90;;;26.57;;
3845;SDS011;1938;50.812;7.738;2022-08-19T01:36:15;37.50;;;26.20;;
3845;SDS011;1938;50.812;7.738;2022-08-19T01:38:48;39.63;;;25.70;;
3845;SDS011;1938;50.812;7.738;2022-08-19T01:41:14;37.97;;;25.20;;
3845;SDS011;1938;50.812;7.738;2022-08-19T01:43:41;38.10;;;25.53;;
3845;SDS011;1938;50.812;7.738;2022-08-19T01:46:07;37.73;;;26.10;;
3845;SDS011;1938;50.812;7.738;2022-08-19T01:48:34;49.43;;;25.17;;
3845;SDS011;1938;50.812;7.738;2022-08-19T01:51:01;38.27;;;24.17;;
3845;SDS011;1938;50.812;7.738;2022-08-19T01:53:27;44.43;;;24.83;;
3845;SDS011;1938;50.812;7.738;2022-08-19T01:55:53;39.03;;;24.83;;
3845;SDS011;1938;50.812;7.738;2022-08-19T01:58:19;36.10;;;23.23;;
3845;SDS011;1938;50.812;7.738;2022-08-19T02:00:47;36.13;;;24.77;;
3845;SDS011;1938;50.812;7.738;2022-08-19T02:03:13;41.90;;;26.60;;
3845;SDS011;1938;50.812;7.738;2022-08-19T02:05:39;43.90;;;24.80;;
3845;SDS011;1938;50.812;7.738;2022-08-19T02:08:05;37.13;;;25.00;;
3845;SDS011;1938;50.812;7.738;2022-08-19T02:10:33;36.97;;;24.40;;
3845;SDS011;1938;50.812;7.738;2022-08-19T02:12:58;36.37;;;24.57;;
3845;SDS011;1938;50.812;7.738;2022-08-19T02:15:24;37.30;;;25.83;;
3845;SDS011;1938;50.812;7.738;2022-08-19T02:17:50;42.63;;;27.73;;
3845;SDS011;1938;50.812;7.738;2022-08-19T02:20:16;36.67;;;23.83;;
3845;SDS011;1938;50.812;7.738;2022-08-19T02:22:42;40.03;;;25.20;;
3845;SDS011;1938;50.812;7.738;2022-08-19T02:25:12;38.33;;;26.93;;
3845;SDS011;1938;50.812;7.738;2022-08-19T02:27:39;39.40;;;25.73;;
3845;SDS011;1938;50.812;7.738;2022-08-19T02:30:07;46.17;;;27.90;;
3845;SDS011;1938;50.812;7.738;2022-08-19T02:32:34;44.90;;;27.90;;
3845;SDS011;1938;50.812;7.738;2022-08-19T02:35:00;41.50;;;26.93;;
3845;SDS011;1938;50.812;7.738;2022-08-19T02:37:26;39.50;;;26.13;;
3845;SDS011;1938;50.812;7.738;2022-08-19T02:40:11;44.20;;;27.30;;
3845;SDS011;1938;50.812;7.738;2022-08-19T02:42:36;39.17;;;25.47;;
3845;SDS011;1938;50.812;7.738;2022-08-19T02:45:02;41.23;;;24.77;;
3845;SDS011;1938;50.812;7.738;2022-08-19T02:47:29;41.23;;;26.63;;
3845;SDS011;1938;50.812;7.738;2022-08-19T02:49:54;37.03;;;24.40;;
3845;SDS011;1938;50.812;7.738;2022-08-19T02:52:20;40.67;;;27.33;;
3845;SDS011;1938;50.812;7.738;2022-08-19T02:54:48;39.13;;;26.10;;
3845;SDS011;1938;50.812;7.738;2022-08-19T02:57:15;41.40;;;26.10;;
3845;SDS011;1938;50.812;7.738;2022-08-19T02:59:42;40.80;;;25.70;;
3845;SDS011;1938;50.812;7.738;2022-08-19T03:02:07;38.43;;;25.70;;
3845;SDS011;1938;50.812;7.738;2022-08-19T03:04:33;37.40;;;25.23;;
3845;SDS011;1938;50.812;7.738;2022-08-19T03:06:59;43.67;;;26.90;;
3845;SDS011;1938;50.812;7.738;2022-08-19T03:09:24;46.17;;;27.53;;
3845;SDS011;1938;50.812;7.738;2022-08-19T03:11:50;39.53;;;28.00;;
3845;SDS011;1938;50.812;7.738;2022-08-19T03:14:15;49.67;;;27.47;;
3845;SDS011;1938;50.812;7.738;2022-08-19T03:16:47;43.07;;;27.80;;
3845;SDS011;1938;50.812;7.738;2022-08-19T03:19:15;41.27;;;26.63;;
3845;SDS011;1938;50.812;7.738;2022-08-19T03:21:42;57.73;;;30.97;;
3845;SDS011;1938;50.812;7.738;2022-08-19T03:24:13;44.20;;;28.67;;
3845;SDS011;1938;50.812;7.738;2022-08-19T03:26:43;46.30;;;28.90;;
3845;SDS011;1938;50.812;7.738;2022-08-19T03:29:10;42.60;;;26.90;;
3845;SDS011;1938;50.812;7.738;2022-08-19T03:31:37;37.20;;;24.50;;
3845;SDS011;1938;50.812;7.738;2022-08-19T03:34:04;41.10;;;25.93;;
3845;SDS011;1938;50.812;7.738;2022-08-19T03:36:30;36.90;;;23.80;;
3845;SDS011;1938;50.812;7.738;2022-08-19T03:38:56;35.13;;;25.23;;
3845;SDS011;1938;50.812;7.738;2022-08-19T03:41:25;35.67;;;24.47;;
3845;SDS011;1938;50.812;7.738;2022-08-19T03:43:53;42.23;;;24.73;;
3845;SDS011;1938;50.812;7.738;2022-08-19T03:46:20;41.00;;;25.53;;
3845;SDS011;1938;50.812;7.738;2022-08-19T03:48:48;41.50;;;25.47;;
3845;SDS011;1938;50.812;7.738;2022-08-19T03:51:25;44.13;;;27.10;;
3845;SDS011;1938;50.812;7.738;2022-08-19T03:53:54;53.80;;;27.57;;
3845;SDS011;1938;50.812;7.738;2022-08-19T03:56:20;43.00;;;28.43;;
3845;SDS011;1938;50.812;7.738;2022-08-19T03:58:47;48.83;;;28.60;;
3845;SDS011;1938;50.812;7.738;2022-08-19T04:01:15;53.03;;;30.43;;
3845;SDS011;1938;50.812;7.738;2022-08-19T04:03:43;47.57;;;29.60;;
3845;SDS011;1938;50.812;7.738;2022-08-19T04:06:18;49.83;;;28.83;;
3845;SDS011;1938;50.812;7.738;2022-08-19T04:08:46;48.50;;;29.07;;
3845;SDS011;1938;50.812;7.738;2022-08-19T04:11:15;53.93;;;30.80;;
3845;SDS011;1938;50.812;7.738;2022-08-19T04:13:48;50.17;;;29.43;;
3845;SDS011;1938;50.812;7.738;2022-08-19T04:16:16;52.23;;;31.43;;
3845;SDS011;1938;50.812;7.738;2022-08-19T04:18:47;52.47;;;28.97;;
3845;SDS011;1938;50.812;7.738;2022-08-19T04:21:31;47.87;;;28.60;;
3845;SDS011;1938;50.812;7.738;2022-08-19T04:23:57;45.20;;;26.23;;
3845;SDS011;1938;50.812;7.738;2022-08-19T04:26:27;46.33;;;28.07;;
3845;SDS011;1938;50.812;7.738;2022-08-19T04:28:57;50.20;;;30.67;;
3845;SDS011;1938;50.812;7.738;2022-08-19T04:31:26;52.90;;;32.20;;
3845;SDS011;1938;50.812;7.738;2022-08-19T04:33:53;54.07;;;29.50;;
3845;SDS011;1938;50.812;7.738;2022-08-19T04:36:22;51.97;;;28.53;;
3845;SDS011;1938;50.812;7.738;2022-08-19T04:38:53;49.60;;;27.17;;
3845;SDS011;1938;50.812;7.738;2022-08-19T04:41:20;47.63;;;29.33;;
3845;SDS011;1938;50.812;7.738;2022-08-19T04:44:05;52.10;;;28.13;;
3845;SDS011;1938;50.812;7.738;2022-08-19T04:46:31;48.23;;;28.17;;
3845;SDS011;1938;50.812;7.738;2022-08-19T04:48:58;44.50;;;27.40;;
3845;SDS011;1938;50.812;7.738;2022-08-19T04:51:25;46.90;;;27.83;;
3845;SDS011;1938;50.812;7.738;2022-08-19T04:53:51;44.97;;;26.00;;
3845;SDS011;1938;50.812;7.738;2022-08-19T04:56:17;48.80;;;29.00;;
3845;SDS011;1938;50.812;7.738;2022-08-19T04:58:46;47.53;;;28.03;;
3845;SDS011;1938;50.812;7.738;2022-08-19T05:01:19;44.00;;;27.40;;
3845;SDS011;1938;50.812;7.738;2022-08-19T05:03:47;41.73;;;27.00;;
3845;SDS011;1938;50.812;7.738;2022-08-19T05:06:13;42.93;;;26.10;;
3845;SDS011;1938;50.812;7.738;2022-08-19T05:08:42;40.73;;;26.37;;
3845;SDS011;1938;50.812;7.738;2022-08-19T05:11:09;37.77;;;24.13;;
3845;SDS011;1938;50.812;7.738;2022-08-19T05:13:37;43.77;;;26.80;;
3845;SDS011;1938;50.812;7.738;2022-08-19T05:16:03;44.30;;;26.10;;
3845;SDS011;1938;50.812;7.738;2022-08-19T05:18:29;44.50;;;26.30;;
3845;SDS011;1938;50.812;7.738;2022-08-19T05:21:14;38.47;;;26.13;;
3845;SDS011;1938;50.812;7.738;2022-08-19T05:24:00;37.97;;;25.67;;
3845;SDS011;1938;50.812;7.738;2022-08-19T05:26:27;39.33;;;25.20;;
3845;SDS011;1938;50.812;7.738;2022-08-19T05:28:53;41.43;;;26.53;;
3845;SDS011;1938;50.812;7.738;2022-08-19T05:31:20;38.77;;;25.17;;
3845;SDS011;1938;50.812;7.738;2022-08-19T05:33:46;39.03;;;25.63;;
3845;SDS011;1938;50.812;7.738;2022-08-19T05:36:12;40.73;;;24.77;;
3845;SDS011;1938;50.812;7.738;2022-08-19T05:38:39;37.23;;;24.07;;
3845;SDS011;1938;50.812;7.738;2022-08-19T05:41:11;32.80;;;22.57;;
3845;SDS011;1938;50.812;7.738;2022-08-19T05:43:41;32.63;;;23.30;;
3845;SDS011;1938;50.812;7.738;2022-08-19T05:46:07;36.37;;;24.87;;
3845;SDS011;1938;50.812;7.738;2022-08-19T05:48:33;35.43;;;23.27;;
3845;SDS011;1938;50.812;7.738;2022-08-19T05:51:04;32.83;;;22.10;;
3845;SDS011;1938;50.812;7.738;2022-08-19T05:53:31;32.03;;;20.60;;
3845;SDS011;1938;50.812;7.738;2022-08-19T05:55:58;26.17;;;19.97;;
3845;SDS011;1938;50.812;7.738;2022-08-19T05:58:29;25.60;;;19.13;;
3845;SDS011;1938;50.812;7.738;2022-08-19T06:00:54;26.53;;;19.90;;
3845;SDS011;1938;50.812;7.738;2022-08-19T06:03:20;23.60;;;19.00;;
3845;SDS011;1938;50.812;7.738;2022-08-19T06:05:46;30.20;;;21.00;;
3845;SDS011;1938;50.812;7.738;2022-08-19T06:08:12;29.20;;;20.97;;
3845;SDS011;1938;50.812;7.738;2022-08-19T06:10:38;30.33;;;22.60;;
3845;SDS011;1938;50.812;7.738;2022-08-19T06:13:04;33.33;;;23.63;;
3845;SDS011;1938;50.812;7.738;2022-08-19T06:15:30;32.33;;;22.67;;
3845;SDS011;1938;50.812;7.738;2022-08-19T06:17:56;36.70;;;25.30;;
3845;SDS011;1938;50.812;7.738;2022-08-19T06:20:21;34.63;;;25.53;;
3845;SDS011;1938;50.812;7.738;2022-08-19T06:22:48;33.97;;;23.10;;
3845;SDS011;1938;50.812;7.738;2022-08-19T06:25:15;37.27;;;24.23;;
3845;SDS011;1938;50.812;7.738;2022-08-19T06:27:42;37.63;;;25.53;;
3845;SDS011;1938;50.812;7.738;2022-08-19T06:30:08;32.03;;;23.70;;
3845;SDS011;1938;50.812;7.738;2022-08-19T06:32:35;39.63;;;23.67;;
3845;SDS011;1938;50.812;7.738;2022-08-19T06:35:00;33.37;;;23.00;;
3845;SDS011;1938;50.812;7.738;2022-08-19T06:37:27;27.40;;;21.03;;
3845;SDS011;1938;50.812;7.738;2022-08-19T06:39:52;30.73;;;20.43;;
3845;SDS011;1938;50.812;7.738;2022-08-19T06:42:18;28.90;;;21.37;;
3845;SDS011;1938;50.812;7.738;2022-08-19T06:44:46;28.67;;;21.23;;
3845;SDS011;1938;50.812;7.738;2022-08-19T06:47:14;28.07;;;20.33;;
3845;SDS011;1938;50.812;7.738;2022-08-19T06:49:42;26.67;;;20.67;;
3845;SDS011;1938;50.812;7.738;2022-08-19T06:52:08;25.33;;;20.40;;
3845;SDS011;1938;50.812;7.738;2022-08-19T06:54:36;33.10;;;21.70;;
3845;SDS011;1938;50.812;7.738;2022-08-19T06:57:04;27.40;;;20.47;;
3845;SDS011;1938;50.812;7.738;2022-08-19T06:59:30;28.00;;;20.40;;
3845;SDS011;1938;50.812;7.738;2022-08-19T07:01:58;27.40;;;21.80;;
3845;SDS011;1938;50.812;7.738;2022-08-19T07:04:27;27.07;;;20.80;;
3845;SDS011;1938;50.812;7.738;2022-08-19T07:07:01;28.90;;;21.50;;
3845;SDS011;1938;50.812;7.738;2022-08-19T07:09:40;26.37;;;20.03;;
3845;SDS011;1938;50.812;7.738;2022-08-19T07:12:08;28.43;;;17.60;;
3845;SDS011;1938;50.812;7.738;2022-08-19T07:14:36;23.83;;;18.50;;
3845;SDS011;1938;50.812;7.738;2022-08-19T07:17:05;23.43;;;19.03;;
3845;SDS011;1938;50.812;7.738;2022-08-19T07:19:32;24.37;;;17.93;;
3845;SDS011;1938;50.812;7.738;2022-08-19T07:22:00;26.67;;;18.97;;
3845;SDS011;1938;50.812;7.738;2022-08-19T07:24:28;29.87;;;19.40;;
3845;SDS011;1938;50.812;7.738;2022-08-19T07:26:55;23.73;;;18.67;;
3845;SDS011;1938;50.812;7.738;2022-08-19T07:29:25;23.03;;;18.63;;
3845;SDS011;1938;50.812;7.738;2022-08-19T07:31:51;31.73;;;19.63;;
3845;SDS011;1938;50.812;7.738;2022-08-19T07:34:21;25.53;;;18.20;;
3845;SDS011;1938;50.812;7.738;2022-08-19T07:36:49;19.83;;;17.00;;
3845;SDS011;1938;50.812;7.738;2022-08-19T07:39:17;21.53;;;16.93;;
3845;SDS011;1938;50.812;7.738;2022-08-19T07:41:46;19.90;;;17.90;;
3845;SDS011;1938;50.812;7.738;2022-08-19T07:44:12;20.50;;;18.00;;
3845;SDS011;1938;50.812;7.738;2022-08-19T07:46:40;19.13;;;16.47;;
3845;SDS011;1938;50.812;7.738;2022-08-19T07:49:09;18.00;;;15.80;;
3845;SDS011;1938;50.812;7.738;2022-08-19T07:51:42;19.57;;;16.63;;
3845;SDS011;1938;50.812;7.738;2022-08-19T07:54:08;21.03;;;15.30;;
3845;SDS011;1938;50.812;7.738;2022-08-19T07:56:34;16.40;;;13.77;;
3845;SDS011;1938;50.812;7.738;2022-08-19T07:59:00;17.97;;;16.00;;
3845;SDS011;1938;50.812;7.738;2022-08-19T08:01:27;18.20;;;15.10;;
3845;SDS011;1938;50.812;7.738;2022-08-19T08:03:53;24.07;;;18.37;;
3845;SDS011;1938;50.812;7.738;2022-08-19T08:06:38;21.00;;;18.80;;
3845;SDS011;1938;50.812;7.738;2022-08-19T08:09:25;39.37;;;32.87;;
3845;SDS011;1938;50.812;7.738;2022-08-19T08:11:54;19.33;;;17.40;;
3845;SDS011;1938;50.812;7.738;2022-08-19T08:14:24;18.83;;;16.73;;
3845;SDS011;1938;50.812;7.738;2022-08-19T08:16:53;19.17;;;15.20;;
3845;SDS011;1938;50.812;7.738;2022-08-19T08:19:20;20.17;;;15.90;;
3845;SDS011;1938;50.812;7.738;2022-08-19T08:21:48;16.13;;;14.63;;
3845;SDS011;1938;50.812;7.738;2022-08-19T08:24:16;16.67;;;14.77;;
3845;SDS011;1938;50.812;7.738;2022-08-19T08:26:42;17.73;;;16.03;;
3845;SDS011;1938;50.812;7.738;2022-08-19T08:29:11;16.37;;;14.73;;
3845;SDS011;1938;50.812;7.738;2022-08-19T08:31:39;17.27;;;15.37;;
3845;SDS011;1938;50.812;7.738;2022-08-19T08:34:05;15.03;;;13.53;;
3845;SDS011;1938;50.812;7.738;2022-08-19T08:36:31;18.13;;;14.17;;
3845;SDS011;1938;50.812;7.738;2022-08-19T08:38:59;15.47;;;14.00;;
3845;SDS011;1938;50.812;7.738;2022-08-19T08:41:37;15.63;;;13.80;;
3845;SDS011;1938;50.812;7.738;2022-08-19T08:44:17;13.07;;;11.73;;
3845;SDS011;1938;50.812;7.738;2022-08-19T08:46:47;12.47;;;11.27;;
3845;SDS011;1938;50.812;7.738;2022-08-19T08:51:44;17.10;;;11.30;;
3845;SDS011;1938;50.812;7.738;2022-08-19T08:54:15;136.07;;;122.97;;
3845;SDS011;1938;50.812;7.738;2022-08-19T08:56:45;18.40;;;11.93;;
3845;SDS011;1938;50.812;7.738;2022-08-19T08:59:21;16.80;;;13.30;;
3845;SDS011;1938;50.812;7.738;2022-08-19T09:01:58;9.87;;;8.60;;
3845;SDS011;1938;50.812;7.738;2022-08-19T09:04:24;13.17;;;6.50;;
3845;SDS011;1938;50.812;7.738;2022-08-19T09:06:52;7.33;;;6.53;;
3845;SDS011;1938;50.812;7.738;2022-08-19T09:09:30;8.30;;;7.17;;
3845;SDS011;1938;50.812;7.738;2022-08-19T09:14:54;11.40;;;10.30;;
3845;SDS011;1938;50.812;7.738;2022-08-19T09:17:25;6.70;;;6.10;;
3845;SDS011;1938;50.812;7.738;2022-08-19T09:20:04;11.13;;;7.87;;
3845;SDS011;1938;50.812;7.738;2022-08-19T09:22:36;9.30;;;8.43;;
3845;SDS011;1938;50.812;7.738;2022-08-19T09:25:03;8.83;;;7.93;;
3845;SDS011;1938;50.812;7.738;2022-08-19T09:27:30;6.50;;;5.90;;
3845;SDS011;1938;50.812;7.738;2022-08-19T09:29:57;9.63;;;6.67;;
3845;SDS011;1938;50.812;7.738;2022-08-19T09:32:23;10.47;;;8.10;;
3845;SDS011;1938;50.812;7.738;2022-08-19T09:34:50;10.50;;;8.97;;
3845;SDS011;1938;50.812;7.738;2022-08-19T09:37:19;9.93;;;8.27;;
3845;SDS011;1938;50.812;7.738;2022-08-19T09:39:46;12.30;;;9.77;;
3845;SDS011;1938;50.812;7.738;2022-08-19T09:42:13;12.10;;;10.10;;
3845;SDS011;1938;50.812;7.738;2022-08-19T09:44:40;12.20;;;9.03;;
3845;SDS011;1938;50.812;7.738;2022-08-19T09:47:06;11.77;;;9.87;;
3845;SDS011;1938;50.812;7.738;2022-08-19T09:49:33;13.00;;;9.87;;
3845;SDS011;1938;50.812;7.738;2022-08-19T09:51:59;12.77;;;9.30;;
3845;SDS011;1938;50.812;7.738;2022-08-19T09:54:25;11.30;;;8.13;;
3845;SDS011;1938;50.812;7.738;2022-08-19T09:56:52;11.87;;;7.70;;
3845;SDS011;1938;50.812;7.738;2022-08-19T09:59:19;9.67;;;6.03;;
3845;SDS011;1938;50.812;7.738;2022-08-19T10:01:45;9.30;;;6.40;;
3845;SDS011;1938;50.812;7.738;2022-08-19T10:04:10;7.17;;;6.20;;
3845;SDS011;1938;50.812;7.738;2022-08-19T10:06:37;15.90;;;7.37;;
3845;SDS011;1938;50.812;7.738;2022-08-19T10:09:05;8.87;;;6.90;;
3845;SDS011;1938;50.812;7.738;2022-08-19T10:11:32;12.03;;;9.13;;
3845;SDS011;1938;50.812;7.738;2022-08-19T10:13:59;13.70;;;8.50;;
3845;SDS011;1938;50.812;7.738;2022-08-19T10:16:26;8.20;;;7.00;;
3845;SDS011;1938;50.812;7.738;2022-08-19T10:18:53;10.10;;;7.80;;
3845;SDS011;1938;50.812;7.738;2022-08-19T10:21:23;8.20;;;5.57;;
3845;SDS011;1938;50.812;7.738;2022-08-19T10:23:55;8.67;;;6.53;;
3845;SDS011;1938;50.812;7.738;2022-08-19T10:26:25;8.37;;;6.73;;
3845;SDS011;1938;50.812;7.738;2022-08-19T10:28:56;8.17;;;6.97;;
3845;SDS011;1938;50.812;7.738;2022-08-19T10:31:31;7.57;;;5.50;;
3845;SDS011;1938;50.812;7.738;2022-08-19T10:33:58;7.03;;;5.43;;
3845;SDS011;1938;50.812;7.738;2022-08-19T10:36:32;5.87;;;5.13;;
3845;SDS011;1938;50.812;7.738;2022-08-19T10:39:01;8.03;;;5.90;;
3845;SDS011;1938;50.812;7.738;2022-08-19T10:41:32;8.10;;;6.60;;
3845;SDS011;1938;50.812;7.738;2022-08-19T10:44:00;12.40;;;8.90;;
3845;SDS011;1938;50.812;7.738;2022-08-19T10:46:28;8.53;;;6.57;;
3845;SDS011;1938;50.812;7.738;2022-08-19T10:48:57;6.77;;;6.07;;
3845;SDS011;1938;50.812;7.738;2022-08-19T10:51:24;8.97;;;7.13;;
3845;SDS011;1938;50.812;7.738;2022-08-19T10:54:08;6.90;;;5.90;;
3845;SDS011;1938;50.812;7.738;2022-08-19T10:56:34;5.53;;;4.80;;
3845;SDS011;1938;50.812;7.738;2022-08-19T10:59:24;9.87;;;4.17;;
3845;SDS011;1938;50.812;7.738;2022-08-19T11:01:52;5.63;;;4.70;;
3845;SDS011;1938;50.812;7.738;2022-08-19T11:04:19;8.07;;;5.83;;
3845;SDS011;1938;50.812;7.738;2022-08-19T11:06:45;9.00;;;4.47;;
3845;SDS011;1938;50.812;7.738;2022-08-19T11:09:16;8.40;;;5.03;;
3845;SDS011;1938;50.812;7.738;2022-08-19T11:11:43;4.77;;;4.17;;
3845;SDS011;1938;50.812;7.738;2022-08-19T11:14:10;4.77;;;4.27;;
3845;SDS011;1938;50.812;7.738;2022-08-19T11:16:38;6.50;;;5.00;;
3845;SDS011;1938;50.812;7.738;2022-08-19T11:19:05;6.50;;;5.90;;
3845;SDS011;1938;50.812;7.738;2022-08-19T11:21:34;7.03;;;5.10;;
3845;SDS011;1938;50.812;7.738;2022-08-19T11:24:06;4.50;;;4.03;;
3845;SDS011;1938;50.812;7.738;2022-08-19T11:26:37;5.60;;;3.30;;
3845;SDS011;1938;50.812;7.738;2022-08-19T11:29:05;6.93;;;4.40;;
3845;SDS011;1938;50.812;7.738;2022-08-19T11:31:33;6.77;;;4.23;;
3845;SDS011;1938;50.812;7.738;2022-08-19T11:34:02;8.13;;;5.70;;
3845;SDS011;1938;50.812;7.738;2022-08-19T11:36:30;7.83;;;6.40;;
3845;SDS011;1938;50.812;7.738;2022-08-19T11:38:57;5.20;;;4.50;;
3845;SDS011;1938;50.812;7.738;2022-08-19T11:41:23;6.17;;;5.57;;
3845;SDS011;1938;50.812;7.738;2022-08-19T11:43:50;7.00;;;5.03;;
3845;SDS011;1938;50.812;7.738;2022-08-19T11:46:17;7.03;;;4.90;;
3845;SDS011;1938;50.812;7.738;2022-08-19T11:48:43;4.90;;;4.40;;
3845;SDS011;1938;50.812;7.738;2022-08-19T11:51:13;5.30;;;4.40;;
3845;SDS011;1938;50.812;7.738;2022-08-19T11:53:40;6.70;;;4.93;;
3845;SDS011;1938;50.812;7.738;2022-08-19T11:56:06;5.50;;;4.63;;
3845;SDS011;1938;50.812;7.738;2022-08-19T11:58:33;5.90;;;4.30;;
3845;SDS011;1938;50.812;7.738;2022-08-19T12:00:59;8.50;;;4.57;;
3845;SDS011;1938;50.812;7.738;2022-08-19T12:03:24;6.40;;;4.53;;
3845;SDS011;1938;50.812;7.738;2022-08-19T12:05:51;9.70;;;7.30;;
3845;SDS011;1938;50.812;7.738;2022-08-19T12:08:17;6.60;;;4.93;;
3845;SDS011;1938;50.812;7.738;2022-08-19T12:10:43;7.90;;;5.80;;
3845;SDS011;1938;50.812;7.738;2022-08-19T12:13:10;7.00;;;5.60;;
3845;SDS011;1938;50.812;7.738;2022-08-19T12:15:36;5.93;;;5.10;;
3845;SDS011;1938;50.812;7.738;2022-08-19T12:18:05;9.30;;;6.17;;
3845;SDS011;1938;50.812;7.738;2022-08-19T12:20:34;7.07;;;4.87;;
3845;SDS011;1938;50.812;7.738;2022-08-19T12:23:02;4.57;;;3.80;;
3845;SDS011;1938;50.812;7.738;2022-08-19T12:25:28;4.63;;;3.70;;
3845;SDS011;1938;50.812;7.738;2022-08-19T12:27:54;6.43;;;4.60;;
3845;SDS011;1938;50.812;7.738;2022-08-19T12:30:19;6.00;;;4.47;;
3845;SDS011;1938;50.812;7.738;2022-08-19T12:32:45;7.27;;;4.50;;
3845;SDS011;1938;50.812;7.738;2022-08-19T12:35:11;6.60;;;4.97;;
3845;SDS011;1938;50.812;7.738;2022-08-19T12:37:38;10.43;;;5.30;;
3845;SDS011;1938;50.812;7.738;2022-08-19T12:40:09;8.07;;;4.73;;
3845;SDS011;1938;50.812;7.738;2022-08-19T12:42:36;7.33;;;5.30;;
3845;SDS011;1938;50.812;7.738;2022-08-19T12:45:06;5.90;;;4.83;;
3845;SDS011;1938;50.812;7.738;2022-08-19T12:47:32;7.80;;;6.97;;
3845;SDS011;1938;50.812;7.738;2022-08-19T12:49:58;7.33;;;5.93;;
3845;SDS011;1938;50.812;7.738;2022-08-19T12:52:24;8.63;;;6.63;;
3845;SDS011;1938;50.812;7.738;2022-08-19T12:54:52;14.13;;;8.17;;
3845;SDS011;1938;50.812;7.738;2022-08-19T12:57:19;9.57;;;7.40;;
3845;SDS011;1938;50.812;7.738;2022-08-19T12:59:45;9.73;;;8.40;;
3845;SDS011;1938;50.812;7.738;2022-08-19T13:02:11;8.07;;;7.17;;
3845;SDS011;1938;50.812;7.738;2022-08-19T13:04:37;7.13;;;5.00;;
3845;SDS011;1938;50.812;7.738;2022-08-19T13:07:06;9.90;;;6.23;;
3845;SDS011;1938;50.812;7.738;2022-08-19T13:09:33;17.13;;;6.63;;
3845;SDS011;1938;50.812;7.738;2022-08-19T13:11:58;6.57;;;5.87;;
3845;SDS011;1938;50.812;7.738;2022-08-19T13:14:27;10.13;;;8.40;;
3845;SDS011;1938;50.812;7.738;2022-08-19T13:16:54;9.30;;;7.50;;
3845;SDS011;1938;50.812;7.738;2022-08-19T13:19:19;8.50;;;6.87;;
3845;SDS011;1938;50.812;7.738;2022-08-19T13:21:49;12.93;;;7.50;;
3845;SDS011;1938;50.812;7.738;2022-08-19T13:24:15;11.60;;;7.00;;
3845;SDS011;1938;50.812;7.738;2022-08-19T13:26:41;7.97;;;7.10;;
3845;SDS011;1938;50.812;7.738;2022-08-19T13:29:06;9.70;;;6.70;;
3845;SDS011;1938;50.812;7.738;2022-08-19T13:31:50;8.60;;;5.70;;
3845;SDS011;1938;50.812;7.738;2022-08-19T13:34:34;7.27;;;5.70;;
3845;SDS011;1938;50.812;7.738;2022-08-19T13:37:02;10.63;;;5.63;;
3845;SDS011;1938;50.812;7.738;2022-08-19T13:39:29;7.47;;;5.77;;
3845;SDS011;1938;50.812;7.738;2022-08-19T13:41:57;7.27;;;4.90;;
3845;SDS011;1938;50.812;7.738;2022-08-19T13:44:24;6.30;;;5.20;;
3845;SDS011;1938;50.812;7.738;2022-08-19T13:46:50;6.50;;;4.83;;
3845;SDS011;1938;50.812;7.738;2022-08-19T13:49:19;4.30;;;3.90;;
3845;SDS011;1938;50.812;7.738;2022-08-19T13:51:45;6.13;;;4.30;;
3845;SDS011;1938;50.812;7.738;2022-08-19T13:54:11;7.70;;;5.70;;
3845;SDS011;1938;50.812;7.738;2022-08-19T13:56:44;6.30;;;4.97;;
3845;SDS011;1938;50.812;7.738;2022-08-19T13:59:11;5.90;;;4.80;;
3845;SDS011;1938;50.812;7.738;2022-08-19T14:01:37;5.30;;;4.50;;
3845;SDS011;1938;50.812;7.738;2022-08-19T14:04:03;7.63;;;5.40;;
3845;SDS011;1938;50.812;7.738;2022-08-19T14:06:29;10.10;;;5.80;;
3845;SDS011;1938;50.812;7.738;2022-08-19T14:08:54;9.83;;;6.80;;
3845;SDS011;1938;50.812;7.738;2022-08-19T14:11:20;12.63;;;6.23;;
3845;SDS011;1938;50.812;7.738;2022-08-19T14:13:49;8.70;;;6.50;;
3845;SDS011;1938;50.812;7.738;2022-08-19T14:16:15;9.40;;;6.63;;
3845;SDS011;1938;50.812;7.738;2022-08-19T14:18:41;8.03;;;6.70;;
3845;SDS011;1938;50.812;7.738;2022-08-19T14:21:07;9.40;;;6.10;;
3845;SDS011;1938;50.812;7.738;2022-08-19T14:23:38;7.10;;;5.90;;
3845;SDS011;1938;50.812;7.738;2022-08-19T14:26:11;7.30;;;6.33;;
3845;SDS011;1938;50.812;7.738;2022-08-19T14:28:39;8.10;;;5.80;;
3845;SDS011;1938;50.812;7.738;2022-08-19T14:31:06;7.87;;;6.60;;
3845;SDS011;1938;50.812;7.738;2022-08-19T14:33:36;10.70;;;7.17;;
3845;SDS011;1938;50.812;7.738;2022-08-19T14:36:03;7.07;;;5.50;;
3845;SDS011;1938;50.812;7.738;2022-08-19T14:38:29;8.93;;;6.40;;
3845;SDS011;1938;50.812;7.738;2022-08-19T14:41:05;9.03;;;6.57;;
3845;SDS011;1938;50.812;7.738;2022-08-19T14:43:32;8.53;;;5.10;;
3845;SDS011;1938;50.812;7.738;2022-08-19T14:46:00;8.07;;;6.07;;
3845;SDS011;1938;50.812;7.738;2022-08-19T14:48:25;10.40;;;6.47;;
3845;SDS011;1938;50.812;7.738;2022-08-19T14:50:52;7.67;;;6.73;;
3845;SDS011;1938;50.812;7.738;2022-08-19T14:53:18;8.20;;;7.00;;
3845;SDS011;1938;50.812;7.738;2022-08-19T14:55:44;11.53;;;7.33;;
3845;SDS011;1938;50.812;7.738;2022-08-19T14:58:11;9.80;;;7.20;;
3845;SDS011;1938;50.812;7.738;2022-08-19T15:00:37;9.97;;;7.50;;
3845;SDS011;1938;50.812;7.738;2022-08-19T15:03:04;11.43;;;7.83;;
3845;SDS011;1938;50.812;7.738;2022-08-19T15:05:30;8.37;;;6.70;;
3845;SDS011;1938;50.812;7.738;2022-08-19T15:07:56;7.43;;;6.63;;